aviador You're here:

WBGR Decoded Metar

MIRI in MALAYSIA
Report Time2018-01-19 11:00:00
UTC Time2018-01-19 11:26:36
Flight Rules vfr VFR
WindVRB at 02 kt
Visibility9999 m
Phenomena:N/A
Clouds:Scattered 016 Hf
Broken 150 Hf
Expected CloudBase > 800 ft AGL from Temp-Dew spread
Ceiling15,000 ft
Temp27°C (ISA +12)
Dew Point25°C (89% RH)
Heat Index30.6°C
QNH1007 hPa
Density Alt2,073 ft
Elevation59 ft
Report Wrong Elevation
Raw Report
METAR WBGR 191100Z VRB02KT 9999 SCT016 BKN150 27/25 Q1007=

Extra information for WBGR:More info

Metar Taf Metar & Taf Last 4 Metars F.Rules Stats Wind Profile Meteogram Temp Stats Airport Information Weather charts Add Link Nearby VenuesMetar ALERT Operation Metar Decoded Social comments